createdAt,value
2016-11-25T00:00:06.612Z,67.26
2016-11-25T00:01:06.626Z,67.64
2016-11-25T00:02:06.327Z,68.4
2016-11-25T00:03:06.345Z,68.12
2016-11-25T00:04:06.363Z,68.59
2016-11-25T00:05:06.697Z,69.51
2016-11-25T00:06:06.715Z,69.42
2016-11-25T00:07:06.729Z,69.51
2016-11-25T00:08:06.435Z,69.7
2016-11-25T00:09:06.766Z,69.6
2016-11-25T00:10:06.784Z,69.32
2016-11-25T00:11:06.513Z,69.7
2016-11-25T00:12:06.504Z,69.99
2016-11-25T00:13:06.844Z,69.42
2016-11-25T00:14:06.863Z,69.6
2016-11-25T00:15:06.554Z,68.56
2016-11-25T00:16:06.573Z,68.65
2016-11-25T00:17:06.905Z,68.56
2016-11-25T00:18:06.610Z,69.32
2016-11-25T00:19:06.628Z,69.7
2016-11-25T00:20:06.966Z,69.42
2016-11-25T00:21:06.663Z,69.7
2016-11-25T00:22:07.001Z,68.75
2016-11-25T00:23:06.696Z,68.84
2016-11-25T00:24:07.042Z,69.42
2016-11-25T00:25:06.732Z,69.13
2016-11-25T00:26:07.066Z,68.75
2016-11-25T00:27:06.767Z,68.65
2016-11-25T00:28:06.790Z,68.75
2016-11-25T00:29:06.804Z,68.69
2016-11-25T00:30:07.152Z,68.21
2016-11-25T00:31:06.841Z,68.65
2016-11-25T00:32:07.171Z,68.69
2016-11-25T00:33:07.192Z,68.27
2016-11-25T00:34:07.206Z,68.18
2016-11-25T00:35:06.925Z,69.04
2016-11-25T00:36:07.249Z,68.75
2016-11-25T00:37:06.944Z,68.84
2016-11-25T00:38:07.278Z,68.75
2016-11-25T00:39:07.295Z,68.65
2016-11-25T00:40:07.319Z,69.6
2016-11-25T00:41:07.015Z,69.51
2016-11-25T00:42:07.033Z,69.79
2016-11-25T00:43:07.367Z,69.51
2016-11-25T00:44:07.086Z,69.99
2016-11-25T00:45:07.403Z,69.7
2016-11-25T00:46:07.416Z,69.99
2016-11-25T00:47:07.121Z,70.18
2016-11-25T00:48:07.460Z,69.6
2016-11-25T00:49:07.473Z,69.32
2016-11-25T00:50:07.492Z,69.32
2016-11-25T00:51:07.513Z,68.75
2016-11-25T00:52:07.208Z,69.13
2016-11-25T00:53:07.225Z,69.13
2016-11-25T00:54:07.245Z,69.51
2016-11-25T00:55:07.580Z,69.7
2016-11-25T00:56:07.277Z,69.6
2016-11-25T00:57:07.296Z,69.51
2016-11-25T00:58:07.313Z,68.65
2016-11-25T00:59:07.646Z,69.51
2016-11-25T01:00:07.347Z,69.23
2016-11-25T01:01:07.366Z,68.46
2016-11-25T01:02:07.381Z,69.42
2016-11-25T01:03:07.715Z,69.79
2016-11-25T01:04:07.418Z,69.51
2016-11-25T01:05:07.751Z,69.51
2016-11-25T01:06:07.456Z,69.32
2016-11-25T01:07:07.786Z,69.51
2016-11-25T01:08:07.495Z,68.65
2016-11-25T01:09:07.821Z,68.65
2016-11-25T01:10:07.840Z,68.84
2016-11-25T01:11:07.541Z,69.42
2016-11-25T01:12:07.557Z,69.51
2016-11-25T01:13:07.576Z,68.65
2016-11-25T01:14:07.911Z,68.94
2016-11-25T01:15:07.613Z,69.04
2016-11-25T01:16:07.630Z,68.46
2016-11-25T01:17:07.654Z,68.69
2016-11-25T01:18:07.980Z,68.75
2016-11-25T01:19:07.711Z,68.84
2016-11-25T01:20:07.700Z,69.42
2016-11-25T01:21:08.033Z,69.7
2016-11-25T01:22:07.738Z,69.7
2016-11-25T01:23:08.077Z,69.32
2016-11-25T01:24:08.085Z,69.89
2016-11-25T01:25:08.102Z,69.6
2016-11-25T01:26:07.803Z,69.7
2016-11-25T01:27:08.141Z,69.89
2016-11-25T01:28:07.841Z,70.08
2016-11-25T01:29:07.853Z,69.6
2016-11-25T01:30:08.191Z,69.6
2016-11-25T01:31:08.210Z,69.99
2016-11-25T01:32:07.912Z,69.89
2016-11-25T01:33:08.240Z,69.7
2016-11-25T01:34:08.261Z,69.89
2016-11-25T01:35:07.983Z,69.7
2016-11-25T01:36:07.994Z,69.6
2016-11-25T01:37:07.997Z,69.7
2016-11-25T01:38:08.020Z,69.89
2016-11-25T01:39:08.034Z,69.51
2016-11-25T01:40:08.366Z,69.51
2016-11-25T01:41:08.384Z,69.51
2016-11-25T01:42:08.107Z,70.37
2016-11-25T01:43:08.418Z,69.99
2016-11-25T01:44:08.436Z,69.99
2016-11-25T01:45:08.135Z,68.65
2016-11-25T01:46:08.155Z,69.42
2016-11-25T01:47:08.170Z,69.79
2016-11-25T01:48:08.506Z,69.23
2016-11-25T01:49:08.520Z,69.6
2016-11-25T01:50:08.227Z,68.56
2016-11-25T01:51:08.557Z,69.7
2016-11-25T01:52:08.574Z,69.99
2016-11-25T01:53:08.595Z,69.42
2016-11-25T01:54:08.614Z,69.79
2016-11-25T01:55:08.631Z,69.51
2016-11-25T01:56:08.329Z,69.99
2016-11-25T01:57:08.349Z,69.99
2016-11-25T01:58:08.364Z,69.7
2016-11-25T01:59:08.697Z,69.99
2016-11-25T02:00:08.401Z,69.99
2016-11-25T02:01:08.741Z,69.89
2016-11-25T02:02:08.751Z,69.32
2016-11-25T02:03:08.768Z,68.56
2016-11-25T02:04:08.791Z,69.51
2016-11-25T02:05:08.490Z,69.7
2016-11-25T02:06:08.510Z,69.42
2016-11-25T02:07:08.524Z,70.18
2016-11-25T02:08:08.861Z,70.27
2016-11-25T02:09:08.875Z,69.99
2016-11-25T02:10:08.574Z,70.84
2016-11-25T02:11:08.596Z,72.27
2016-11-25T02:12:08.927Z,70.37
2016-11-25T02:13:08.945Z,69.54
2016-11-25T02:14:08.646Z,68.56
2016-11-25T02:15:08.985Z,68.4
2016-11-25T02:16:08.680Z,68.37
2016-11-25T02:17:09.014Z,68.56
2016-11-25T02:18:08.717Z,68.56
2016-11-25T02:19:09.050Z,68.65
2016-11-25T02:20:08.753Z,68.46
2016-11-25T02:21:08.769Z,69.89
2016-11-25T02:22:09.103Z,69.04
2016-11-25T02:23:08.805Z,68.65
2016-11-25T02:24:09.139Z,68.75
2016-11-25T02:25:09.153Z,68.56
2016-11-25T02:26:08.860Z,69.32
2016-11-25T02:27:08.892Z,69.89
2016-11-25T02:28:09.210Z,69.23
2016-11-25T02:29:08.910Z,68.65
2016-11-25T02:30:09.268Z,68.65
2016-11-25T02:31:08.945Z,68.56
2016-11-25T02:32:08.972Z,68.65
2016-11-25T02:33:08.979Z,69.23
2016-11-25T02:34:09.331Z,68.56
2016-11-25T02:35:09.028Z,69.13
2016-11-25T02:36:09.350Z,68.94
2016-11-25T02:37:09.368Z,69.51
2016-11-25T02:38:09.393Z,68.56
2016-11-25T02:39:09.086Z,68.75
2016-11-25T02:40:09.103Z,69.13
2016-11-25T02:41:09.439Z,69.51
2016-11-25T02:42:09.456Z,70.14
2016-11-25T02:43:09.159Z,70.33
2016-11-25T02:44:09.174Z,70.72
2016-11-25T02:45:09.191Z,70.05
2016-11-25T02:46:09.209Z,69.76
2016-11-25T02:47:09.543Z,69.95
2016-11-25T02:48:09.563Z,69.95
2016-11-25T02:49:09.261Z,69.57
2016-11-25T02:50:09.596Z,70.24
2016-11-25T02:51:09.297Z,70.43
2016-11-25T02:52:09.320Z,70.14
2016-11-25T02:53:09.648Z,69.89
2016-11-25T02:54:09.666Z,69.6
2016-11-25T02:55:09.366Z,69.32
2016-11-25T02:56:09.704Z,69.6
2016-11-25T02:57:09.716Z,70.56
2016-11-25T02:58:09.422Z,70.18
2016-11-25T02:59:09.437Z,70.75
2016-11-25T03:00:09.772Z,68.84
2016-11-25T03:01:09.788Z,69.7
2016-11-25T03:02:09.490Z,69.51
2016-11-25T03:03:09.516Z,68.65
2016-11-25T03:04:09.524Z,68.84
2016-11-25T03:05:09.543Z,68.27
2016-11-25T03:06:09.561Z,68.52
2016-11-25T03:07:09.896Z,69.48
2016-11-25T03:08:09.596Z,68.94
2016-11-25T03:09:09.611Z,68.56
2016-11-25T03:10:09.945Z,68.84
2016-11-25T03:11:09.647Z,68.94
2016-11-25T03:12:09.670Z,68.84
2016-11-25T03:13:09.682Z,68.65
2016-11-25T03:14:09.709Z,68.18
2016-11-25T03:15:10.054Z,68.65
2016-11-25T03:16:10.052Z,68.94
2016-11-25T03:17:09.752Z,68.27
2016-11-25T03:18:10.089Z,68.27
2016-11-25T03:19:09.803Z,68.27
2016-11-25T03:20:10.119Z,68.27
2016-11-25T03:21:09.827Z,69.13
2016-11-25T03:22:09.840Z,68.65
2016-11-25T03:23:09.857Z,68.75
2016-11-25T03:24:10.190Z,67.99
2016-11-25T03:25:09.895Z,67.8
2016-11-25T03:26:10.242Z,67.7
2016-11-25T03:27:10.245Z,67.8
2016-11-25T03:28:10.262Z,67.61
2016-11-25T03:29:10.279Z,67.51
2016-11-25T03:30:10.296Z,67.89
2016-11-25T03:31:10.314Z,68.27
2016-11-25T03:32:10.018Z,68.65
2016-11-25T03:33:10.346Z,68.37
2016-11-25T03:34:10.368Z,68.56
2016-11-25T03:35:10.067Z,69.23
2016-11-25T03:36:10.099Z,68.84
2016-11-25T03:37:10.110Z,69.51
2016-11-25T03:38:10.121Z,69.51
2016-11-25T03:39:10.137Z,69.04
2016-11-25T03:40:10.472Z,68.56
2016-11-25T03:41:10.179Z,67.99
2016-11-25T03:42:10.196Z,67.51
2016-11-25T03:43:10.525Z,67.7
2016-11-25T03:44:10.543Z,68.08
2016-11-25T03:45:10.247Z,68.27
2016-11-25T03:46:10.262Z,67.89
2016-11-25T03:47:10.604Z,67.89
2016-11-25T03:48:10.299Z,67.89
2016-11-25T03:49:10.320Z,68.18
2016-11-25T03:50:10.647Z,68.27
2016-11-25T03:51:10.350Z,68.65
2016-11-25T03:52:10.684Z,68.75
2016-11-25T03:53:10.385Z,68.27
2016-11-25T03:54:10.717Z,68.71
2016-11-25T03:55:10.421Z,68.65
2016-11-25T03:56:10.447Z,69.29
2016-11-25T03:57:10.773Z,68.43
2016-11-25T03:58:10.473Z,69.38
2016-11-25T03:59:10.491Z,68.52
2016-11-25T04:00:10.508Z,69.57
2016-11-25T04:01:10.526Z,70.05
2016-11-25T04:02:10.541Z,68.52
2016-11-25T04:03:10.876Z,69.48
2016-11-25T04:04:10.578Z,69.48
2016-11-25T04:05:10.597Z,68.62
2016-11-25T04:06:10.612Z,69.38
2016-11-25T04:07:10.632Z,68.52
2016-11-25T04:08:10.648Z,68.62
2016-11-25T04:09:10.666Z,68.81
2016-11-25T04:10:10.999Z,69
2016-11-25T04:11:10.717Z,69.76
2016-11-25T04:12:10.725Z,69.48
2016-11-25T04:13:11.051Z,69
2016-11-25T04:14:11.066Z,69.48
2016-11-25T04:15:10.768Z,69.29
2016-11-25T04:16:11.099Z,69.1
2016-11-25T04:17:10.805Z,68.52
2016-11-25T04:18:11.154Z,68.62
2016-11-25T04:19:11.151Z,69
2016-11-25T04:20:10.853Z,69.57
2016-11-25T04:21:10.873Z,69.48
2016-11-25T04:22:11.205Z,69.7
2016-11-25T04:23:10.909Z,68.27
2016-11-25T04:24:10.922Z,68.56
2016-11-25T04:25:10.940Z,68.56
2016-11-25T04:26:10.958Z,68.81
2016-11-25T04:27:11.304Z,69.48
2016-11-25T04:29:11.012Z,68.56
2016-11-25T04:30:11.029Z,69.29
2016-11-25T04:31:11.361Z,68.43
2016-11-25T04:32:11.061Z,68.62
2016-11-25T04:33:11.077Z,68.81
2016-11-25T04:34:11.096Z,69.48
2016-11-25T04:35:11.123Z,69.32
2016-11-25T04:36:11.129Z,69.42
2016-11-25T04:37:11.151Z,68.65
2016-11-25T04:38:11.484Z,68.27
2016-11-25T04:39:11.183Z,68.37
2016-11-25T04:40:11.201Z,68.18
2016-11-25T04:41:11.216Z,68.56
2016-11-25T04:42:11.237Z,68.18
2016-11-25T04:43:11.567Z,68.56
2016-11-25T04:44:11.268Z,68.65
2016-11-25T04:45:11.289Z,68.46
2016-11-25T04:46:11.302Z,68.65
2016-11-25T04:47:11.322Z,68.18
2016-11-25T04:48:11.659Z,67.7
2016-11-25T04:49:11.358Z,68.65
2016-11-25T04:50:11.371Z,68.62
2016-11-25T04:51:11.719Z,68.56
2016-11-25T04:52:11.408Z,69.42
2016-11-25T04:53:11.739Z,68.84
2016-11-25T04:54:11.756Z,68.75
2016-11-25T04:55:11.469Z,68.56
2016-11-25T04:56:11.506Z,67.41
2016-11-25T04:57:11.812Z,67.89
2016-11-25T04:58:11.510Z,68.46
2016-11-25T04:59:11.846Z,67.7
2016-11-25T05:00:11.863Z,68.27
2016-11-25T05:01:11.888Z,67.7
2016-11-25T05:02:11.898Z,67.61
2016-11-25T05:03:11.602Z,68.08
2016-11-25T05:04:11.929Z,68.27
2016-11-25T05:05:11.634Z,69.13
2016-11-25T05:06:11.967Z,68.65
2016-11-25T05:07:11.986Z,68.08
2016-11-25T05:08:11.684Z,67.7
2016-11-25T05:09:12.018Z,67.51
2016-11-25T05:10:11.719Z,67.47
2016-11-25T05:11:11.761Z,68.52
2016-11-25T05:12:12.066Z,68.15
2016-11-25T05:13:11.770Z,68.62
2016-11-25T05:14:11.791Z,68.62
2016-11-25T05:15:12.120Z,68.52
2016-11-25T05:16:12.139Z,68.52
2016-11-25T05:17:11.841Z,68.52
2016-11-25T05:18:11.858Z,69.1
2016-11-25T05:19:11.875Z,68.43
2016-11-25T05:20:11.894Z,68.62
2016-11-25T05:21:11.915Z,68.71
2016-11-25T05:22:12.251Z,68.62
2016-11-25T05:23:12.267Z,68.71
2016-11-25T05:24:12.284Z,69
2016-11-25T05:25:11.988Z,69.1
2016-11-25T05:26:12.002Z,68.62
2016-11-25T05:27:12.327Z,69.19
2016-11-25T05:28:12.347Z,69.48
2016-11-25T05:29:12.362Z,69.38
2016-11-25T05:30:12.065Z,69.29
2016-11-25T05:31:12.084Z,69.48
2016-11-25T05:32:12.097Z,69.95
2016-11-25T05:33:12.434Z,69.48
2016-11-25T05:34:12.447Z,69.29
2016-11-25T05:35:12.176Z,69.57
2016-11-25T05:36:12.166Z,69.57
2016-11-25T05:37:12.500Z,69.48
2016-11-25T05:38:12.513Z,68.81
2016-11-25T05:39:12.532Z,69.38
2016-11-25T05:40:12.570Z,69.19
2016-11-25T05:41:12.568Z,69.57
2016-11-25T05:42:12.270Z,69
2016-11-25T05:43:12.603Z,68.43
2016-11-25T05:44:12.621Z,69
2016-11-25T05:45:12.320Z,69.29
2016-11-25T05:46:12.338Z,69.76
2016-11-25T05:47:12.669Z,69.85
2016-11-25T05:48:12.389Z,70.14
2016-11-25T05:49:12.387Z,70.62
2016-11-25T05:50:12.406Z,69.85
2016-11-25T05:51:12.739Z,69.76
2016-11-25T05:52:12.438Z,70.33
2016-11-25T05:53:12.773Z,70.14
2016-11-25T05:54:12.790Z,69.48
2016-11-25T05:55:12.491Z,69.95
2016-11-25T05:56:12.821Z,69.76
2016-11-25T05:57:12.838Z,68.33
2016-11-25T05:58:12.855Z,69.57
2016-11-25T05:59:12.871Z,69.29
2016-11-25T06:00:12.890Z,69.48
2016-11-25T06:01:12.905Z,69.76
2016-11-25T06:02:12.927Z,69.73
2016-11-25T06:03:12.624Z,69.76
2016-11-25T06:04:12.643Z,70.33
2016-11-25T06:05:12.976Z,69.76
2016-11-25T06:06:12.990Z,69.57
2016-11-25T06:07:13.014Z,69.29
2016-11-25T06:08:13.025Z,69.95
2016-11-25T06:09:13.043Z,69.38
2016-11-25T06:10:13.064Z,69.38
2016-11-25T06:11:13.074Z,69.48
2016-11-25T06:12:13.092Z,69.67
2016-11-25T06:13:12.794Z,69.48
2016-11-25T06:14:13.124Z,68.81
2016-11-25T06:15:13.141Z,69.1
2016-11-25T06:16:13.160Z,69.67
2016-11-25T06:17:12.861Z,69.76
2016-11-25T06:18:13.193Z,69.85
2016-11-25T06:19:12.892Z,69.85
2016-11-25T06:20:12.912Z,69.76
2016-11-25T06:21:13.243Z,69.95
2016-11-25T06:22:12.943Z,69.38
2016-11-25T06:23:13.276Z,69.85
2016-11-25T06:24:12.975Z,69.76
2016-11-25T06:25:12.993Z,69.76
2016-11-25T06:26:13.325Z,70.24
2016-11-25T06:27:13.026Z,70.39
2016-11-25T06:28:13.356Z,71.06
2016-11-25T06:29:13.373Z,71.06
2016-11-25T06:30:13.392Z,70.97
2016-11-25T06:31:13.093Z,70.97
2016-11-25T06:32:13.109Z,71.06
2016-11-25T06:33:13.442Z,71
2016-11-25T06:34:13.143Z,70.72
2016-11-25T06:35:13.161Z,70.52
2016-11-25T06:36:13.492Z,70.52
2016-11-25T06:37:13.507Z,69.95
2016-11-25T06:38:13.211Z,70.14
2016-11-25T06:39:13.231Z,70.05
2016-11-25T06:40:13.242Z,70.24
2016-11-25T06:41:13.572Z,69.67
2016-11-25T06:42:13.279Z,69.95
2016-11-25T06:43:13.607Z,69.57
2016-11-25T06:44:13.626Z,70.14
2016-11-25T06:45:13.325Z,69.95
2016-11-25T06:46:13.668Z,70.33
2016-11-25T06:47:13.676Z,69.57
2016-11-25T06:48:13.376Z,69.67
2016-11-25T06:49:13.711Z,70.05
2016-11-25T06:50:13.411Z,70.14
2016-11-25T06:51:13.429Z,70.43
2016-11-25T06:52:13.452Z,69.95
2016-11-25T06:53:13.463Z,70.14
2016-11-25T06:54:13.479Z,69.76
2016-11-25T06:55:13.496Z,70.43
2016-11-25T06:56:13.514Z,70.24
2016-11-25T06:57:13.532Z,70.24
2016-11-25T06:58:13.863Z,70.52
2016-11-25T06:59:13.566Z,71
2016-11-25T07:00:13.582Z,71.67
2016-11-25T07:01:13.601Z,70.24
2016-11-25T07:02:13.615Z,69.19
2016-11-25T07:03:13.947Z,68.62
2016-11-25T07:04:13.966Z,68.43
2016-11-25T07:05:13.994Z,68.81
2016-11-25T07:06:13.996Z,68.52
2016-11-25T07:07:13.700Z,68.81
2016-11-25T07:08:14.043Z,69.76
2016-11-25T07:09:14.073Z,69.67
2016-11-25T07:10:14.063Z,69.67
2016-11-25T07:11:14.086Z,70.14
2016-11-25T07:12:13.786Z,70.52
2016-11-25T07:13:13.802Z,69.95
2016-11-25T07:14:14.133Z,70.62
2016-11-25T07:15:13.837Z,69.76
2016-11-25T07:16:13.857Z,69.19
2016-11-25T07:17:13.871Z,68.52
2016-11-25T07:18:13.891Z,68.33
2016-11-25T07:19:13.905Z,69.38
2016-11-25T07:20:14.236Z,70.05
2016-11-25T07:21:13.939Z,69.57
2016-11-25T07:22:13.958Z,69.29
2016-11-25T07:23:14.063Z,69
2016-11-25T07:24:13.993Z,68.62
2016-11-25T07:25:14.327Z,68.33
2016-11-25T07:26:14.025Z,68.71
2016-11-25T07:27:14.358Z,68.71
2016-11-25T07:28:14.373Z,68.81
2016-11-25T07:29:14.075Z,68.43
2016-11-25T07:30:14.408Z,68.52
2016-11-25T07:31:14.429Z,69.29
2016-11-25T07:32:14.152Z,68.81
2016-11-25T07:33:14.145Z,69
2016-11-25T07:34:14.478Z,68.52
2016-11-25T07:35:14.178Z,68.81
2016-11-25T07:36:14.512Z,68.71
2016-11-25T07:37:14.211Z,69.38
2016-11-25T07:38:14.258Z,68.62
2016-11-25T07:39:14.561Z,69.95
2016-11-25T07:40:14.273Z,70.14
2016-11-25T07:41:14.715Z,69.57
2016-11-25T07:42:14.611Z,69.48
2016-11-25T07:43:14.315Z,69.57
2016-11-25T07:44:14.333Z,69.57
2016-11-25T07:45:14.663Z,70.24
2016-11-25T07:46:14.367Z,68.46
2016-11-25T07:47:14.701Z,68.71
2016-11-25T07:48:14.714Z,68.84
2016-11-25T07:49:14.421Z,69.32
2016-11-25T07:50:14.752Z,67.7
2016-11-25T07:51:14.766Z,68.62
2016-11-25T07:52:14.468Z,69
2016-11-25T07:53:14.489Z,68.08
2016-11-25T07:54:14.503Z,68.24
2016-11-25T07:55:14.520Z,68.62
2016-11-25T07:56:14.863Z,68.24
2016-11-25T07:57:14.884Z,68.52
2016-11-25T07:58:14.572Z,69.1
2016-11-25T07:59:14.587Z,68.81
2016-11-25T08:00:14.926Z,68.71
2016-11-25T08:01:14.622Z,68.71
2016-11-25T08:02:14.958Z,68.71
2016-11-25T08:03:14.660Z,68.71
2016-11-25T08:04:14.989Z,68.24
2016-11-25T08:05:14.691Z,68.71
2016-11-25T08:06:14.710Z,68.71
2016-11-25T08:07:14.727Z,69.76
2016-11-25T08:08:15.056Z,69.95
2016-11-25T08:09:14.780Z,69.48
2016-11-25T08:10:14.775Z,69.48
2016-11-25T08:11:15.109Z,69.38
2016-11-25T08:12:15.128Z,69.48
2016-11-25T08:13:14.830Z,70.05
2016-11-25T08:14:14.847Z,70.14
2016-11-25T08:15:15.175Z,69.85
2016-11-25T08:16:15.196Z,69.38
2016-11-25T08:17:14.896Z,68.71
2016-11-25T08:18:14.911Z,68.9
2016-11-25T08:19:15.266Z,69.19
2016-11-25T08:20:14.947Z,70.24
2016-11-25T08:21:14.966Z,69.67
2016-11-25T08:22:15.297Z,69.57
2016-11-25T08:23:14.996Z,69.76
2016-11-25T08:24:15.018Z,69.92
2016-11-25T08:25:15.347Z,70.24
2016-11-25T08:26:15.370Z,69.67
2016-11-25T08:27:15.381Z,69.95
2016-11-25T08:28:15.400Z,70.24
2016-11-25T08:29:15.099Z,69.85
2016-11-25T08:30:15.431Z,69.85
2016-11-25T08:31:15.136Z,70.24
2016-11-25T08:32:15.152Z,70.14
2016-11-25T08:33:15.170Z,69.76
2016-11-25T08:34:15.193Z,70.33
2016-11-25T08:35:15.204Z,69.76
2016-11-25T08:36:15.219Z,68.71
2016-11-25T08:37:15.556Z,68.52
2016-11-25T08:38:15.570Z,68.71
2016-11-25T08:39:15.584Z,68.62
2016-11-25T08:40:15.287Z,68.71
2016-11-25T08:41:15.306Z,68.43
2016-11-25T08:42:15.321Z,68.43
2016-11-25T08:43:15.338Z,68.62
2016-11-25T08:44:15.671Z,68.81
2016-11-25T08:45:15.373Z,69.29
2016-11-25T08:46:15.407Z,69.67
2016-11-25T08:47:15.721Z,69.57
2016-11-25T08:48:15.423Z,70.14
2016-11-25T08:49:15.440Z,70.14
2016-11-25T08:50:15.777Z,69.95
2016-11-25T08:51:15.471Z,70.43
2016-11-25T08:52:15.492Z,70.33
2016-11-25T08:53:15.825Z,70.05
2016-11-25T08:54:15.844Z,69.85
2016-11-25T08:55:15.858Z,69.67
2016-11-25T08:56:36.089Z,69.29
2016-11-25T08:57:15.577Z,69.29
2016-11-25T08:58:15.592Z,69.57
2016-11-25T08:59:15.928Z,69.48
2016-11-25T09:00:15.630Z,68.62
2016-11-25T09:01:15.964Z,69.38
2016-11-25T09:02:15.976Z,69.19
2016-11-25T09:03:15.996Z,68.9
2016-11-25T09:04:15.694Z,68.62
2016-11-25T09:05:15.712Z,69.38
2016-11-25T09:06:15.729Z,68.62
2016-11-25T09:07:16.063Z,68.08
2016-11-25T09:08:15.767Z,67.67
2016-11-25T09:09:15.781Z,67.86
2016-11-25T09:10:16.117Z,68.15
2016-11-25T09:11:15.815Z,67.95
2016-11-25T09:12:15.833Z,68.52
2016-11-25T09:13:16.165Z,68.43
2016-11-25T09:14:15.874Z,68.43
2016-11-25T09:15:16.200Z,68.62
2016-11-25T09:16:15.899Z,68.62
2016-11-25T09:17:15.918Z,68.62
2016-11-25T09:18:15.939Z,68.43
2016-11-25T09:19:16.267Z,67.61
2016-11-25T09:20:15.967Z,67.86
2016-11-25T09:21:16.304Z,68.52
2016-11-25T09:22:16.339Z,68.24
2016-11-25T09:23:16.035Z,68.9
2016-11-25T09:24:16.037Z,68.71
2016-11-25T09:25:16.369Z,68.71
2016-11-25T09:26:16.386Z,69.48
2016-11-25T09:27:16.089Z,68.71
2016-11-25T09:28:16.107Z,68.81
2016-11-25T09:29:16.124Z,68.62
2016-11-25T09:30:16.458Z,68.24
2016-11-25T09:31:16.156Z,68.52
2016-11-25T09:32:16.490Z,69.57
2016-11-25T09:33:16.193Z,68.75
2016-11-25T09:34:16.209Z,68.18
2016-11-25T09:35:16.543Z,68.37
2016-11-25T09:36:16.252Z,67.61
2016-11-25T09:37:16.578Z,68.27
2016-11-25T09:38:16.280Z,68.84
2016-11-25T09:39:16.295Z,67.61
2016-11-25T09:40:16.636Z,67.41
2016-11-25T09:41:16.331Z,67.51
2016-11-25T09:42:16.347Z,67.51
2016-11-25T09:43:16.367Z,67.7
2016-11-25T09:44:16.381Z,67.89
2016-11-25T09:45:16.409Z,67.32
2016-11-25T09:46:16.415Z,67.32
2016-11-25T09:47:16.457Z,67.61
2016-11-25T09:48:16.765Z,67.89
2016-11-25T09:49:16.782Z,67.7
2016-11-25T09:50:16.502Z,67.99
2016-11-25T09:51:16.513Z,68.52
2016-11-25T09:52:16.519Z,67.32
2016-11-25T09:53:16.857Z,67.61
2016-11-25T09:54:16.551Z,68.65
2016-11-25T09:55:16.571Z,67.7
2016-11-25T09:56:16.903Z,67.7
2016-11-25T09:57:16.604Z,67.61
2016-11-25T09:58:16.938Z,67.99
2016-11-25T09:59:16.651Z,67.7
2016-11-25T10:00:16.973Z,67.61
2016-11-25T10:01:16.992Z,67.22
2016-11-25T10:02:16.692Z,67.7
2016-11-25T10:03:17.027Z,67.67
2016-11-25T10:04:16.731Z,67.61
2016-11-25T10:05:17.061Z,67.95
2016-11-25T10:06:17.090Z,68.62
2016-11-25T10:07:16.788Z,69.29
2016-11-25T10:08:16.794Z,69.48
2016-11-25T10:09:17.129Z,68.24
2016-11-25T10:10:16.830Z,68.81
2016-11-25T10:11:17.162Z,68.62
2016-11-25T10:12:17.182Z,68.62
2016-11-25T10:13:17.196Z,68.62
2016-11-25T10:14:17.215Z,67.76
2016-11-25T10:15:16.919Z,67.57
2016-11-25T10:16:16.938Z,68.33
2016-11-25T10:17:16.952Z,68.62
2016-11-25T10:18:16.970Z,68.15
2016-11-25T10:19:17.303Z,68.43
2016-11-25T10:20:17.007Z,67.7
2016-11-25T10:21:17.333Z,67.61
2016-11-25T10:22:17.036Z,67.8
2016-11-25T10:23:17.052Z,67.89
2016-11-25T10:24:17.394Z,67.61
2016-11-25T10:25:17.402Z,67.13
2016-11-25T10:26:17.106Z,67.41
2016-11-25T10:27:17.439Z,67.89
2016-11-25T10:28:17.143Z,67.51
2016-11-25T10:29:17.474Z,67.22
2016-11-25T10:30:17.174Z,67.13
2016-11-25T10:31:17.507Z,67.13
2016-11-25T10:32:17.214Z,67.03
2016-11-25T10:33:17.720Z,66.85
2016-11-25T10:34:17.561Z,66.56
2016-11-25T10:35:17.262Z,67.32
2016-11-25T10:36:17.287Z,67.32
2016-11-25T10:37:17.298Z,66.78
2016-11-25T10:38:17.630Z,66.37
2016-11-25T10:39:17.660Z,65.8
2016-11-25T10:40:17.350Z,66.27
2016-11-25T10:41:17.366Z,66.27
2016-11-25T10:42:17.698Z,66.18
2016-11-25T10:43:17.724Z,66.75
2016-11-25T10:44:17.735Z,66.66
2016-11-25T10:45:17.436Z,65.99
2016-11-25T10:46:17.768Z,66.4
2016-11-25T10:47:17.475Z,65.99
2016-11-25T10:48:17.490Z,66.4
2016-11-25T10:49:17.842Z,66.21
2016-11-25T10:50:17.523Z,65.92
2016-11-25T10:51:17.543Z,66.11
2016-11-25T10:52:17.874Z,65.64
2016-11-25T10:53:17.891Z,65.64
2016-11-25T10:54:17.591Z,65.73
2016-11-25T10:55:17.610Z,65.92
2016-11-25T10:56:17.628Z,66.02
2016-11-25T10:57:17.963Z,65.64
2016-11-25T10:58:17.667Z,66.08
2016-11-25T10:59:17.997Z,65.89
2016-11-25T11:00:17.696Z,66.08
2016-11-25T11:01:17.716Z,66.27
2016-11-25T11:02:18.056Z,66.37
2016-11-25T11:03:17.756Z,66.97
2016-11-25T11:04:18.083Z,67.35
2016-11-25T11:05:17.789Z,67.16
2016-11-25T11:06:18.118Z,65.92
2016-11-25T11:07:17.828Z,66.4
2016-11-25T11:08:17.839Z,66.21
2016-11-25T11:09:17.861Z,66.27
2016-11-25T11:10:17.874Z,66.56
2016-11-25T11:11:18.208Z,66.75
2016-11-25T11:12:17.909Z,66.78
2016-11-25T11:13:18.275Z,66.75
2016-11-25T11:14:17.944Z,66.27
2016-11-25T11:15:18.279Z,66.94
2016-11-25T11:16:17.983Z,67.03
2016-11-25T11:17:18.316Z,67.16
2016-11-25T11:18:18.332Z,66.78
2016-11-25T11:19:18.346Z,65.73
2016-11-25T11:20:18.050Z,65.73
2016-11-25T11:21:18.071Z,66.11
2016-11-25T11:22:18.085Z,66.97
2016-11-25T11:23:18.109Z,67.26
2016-11-25T11:24:18.122Z,66.31
2016-11-25T11:25:18.140Z,66.02
2016-11-25T11:26:18.156Z,66.31
2016-11-25T11:27:18.175Z,65.45
2016-11-25T11:28:18.195Z,65.55
2016-11-25T11:30:18.543Z,65.55
2016-11-25T11:31:18.247Z,64.78
2016-11-25T11:32:18.577Z,65.64
2016-11-25T11:33:18.596Z,65.55
2016-11-25T11:34:18.298Z,65.55
2016-11-25T11:35:18.634Z,66.21
2016-11-25T11:36:18.649Z,66.5
2016-11-25T11:37:18.352Z,65.29
2016-11-25T11:38:18.370Z,65.39
2016-11-25T11:39:18.704Z,64.53
2016-11-25T11:40:18.406Z,64.43
2016-11-25T11:41:18.425Z,65.1
2016-11-25T11:42:18.447Z,64.34
2016-11-25T11:43:18.478Z,64.53
2016-11-25T11:44:18.794Z,64.62
2016-11-25T11:45:18.812Z,64.53
2016-11-25T11:46:18.512Z,64.81
2016-11-25T11:47:18.534Z,64.24
2016-11-25T11:48:18.870Z,64.72
2016-11-25T11:49:18.575Z,65.39
2016-11-25T11:50:18.918Z,64.72
2016-11-25T11:51:18.612Z,64.53
2016-11-25T11:52:18.623Z,64.05
2016-11-25T11:53:18.961Z,64.72
2016-11-25T11:54:18.974Z,64.72
2016-11-25T11:55:18.675Z,64.59
2016-11-25T11:56:18.695Z,65.29
2016-11-25T11:57:18.712Z,64.53
2016-11-25T11:58:19.045Z,64.81
2016-11-25T11:59:18.771Z,64.43
2016-11-25T12:00:18.767Z,64.43
2016-11-25T12:01:19.100Z,65
2016-11-25T12:02:18.851Z,64.43
2016-11-25T12:03:18.822Z,64.34
2016-11-25T12:04:19.154Z,64.62
2016-11-25T12:05:19.172Z,64.91
2016-11-25T12:06:19.189Z,64.62
2016-11-25T12:07:18.892Z,64.15
2016-11-25T12:08:18.914Z,64.34
2016-11-25T12:09:18.930Z,64.05
2016-11-25T12:10:18.950Z,63.39
2016-11-25T12:11:19.282Z,63.57
2016-11-25T12:12:19.299Z,63.67
2016-11-25T12:13:19.317Z,64.15
2016-11-25T12:14:19.338Z,64.43
2016-11-25T12:15:19.052Z,63.76
2016-11-25T12:16:19.370Z,63.86
2016-11-25T12:17:19.414Z,64.15
2016-11-25T12:18:19.092Z,63.76
2016-11-25T12:19:19.110Z,63.2
2016-11-25T12:20:19.444Z,63.1
2016-11-25T12:21:19.465Z,63.76
2016-11-25T12:22:19.168Z,64.24
2016-11-25T12:23:19.188Z,63.76
2016-11-25T12:24:19.201Z,63.96
2016-11-25T12:25:19.222Z,64.15
2016-11-25T12:26:19.561Z,64.15
2016-11-25T12:27:19.256Z,63.67
2016-11-25T12:28:19.274Z,64.34
2016-11-25T12:29:19.292Z,64.15
2016-11-25T12:30:19.309Z,64.62
2016-11-25T12:31:19.334Z,63.48
2016-11-25T12:32:19.660Z,63.96
2016-11-25T12:33:19.683Z,64.81
2016-11-25T12:34:19.700Z,63.57
2016-11-25T12:35:19.719Z,63.29
2016-11-25T12:36:19.419Z,63.2
2016-11-25T12:37:19.753Z,63.48
2016-11-25T12:38:19.456Z,63.67
2016-11-25T12:39:19.791Z,64.05
2016-11-25T12:40:19.489Z,64.24
2016-11-25T12:41:19.843Z,64.43
2016-11-25T12:42:19.539Z,64.72
2016-11-25T12:43:19.865Z,64.81
2016-11-25T12:44:19.576Z,63.86
2016-11-25T12:45:19.924Z,63.76
2016-11-25T12:46:19.604Z,63.76
2016-11-25T12:47:19.621Z,64.15
2016-11-25T12:48:19.639Z,63.76
2016-11-25T12:49:19.972Z,63.57
2016-11-25T12:50:19.989Z,64.05
2016-11-25T12:51:20.008Z,63.96
2016-11-25T12:52:19.714Z,63.76
2016-11-25T12:53:20.048Z,63.76
2016-11-25T12:54:19.749Z,64.05
2016-11-25T12:55:19.768Z,64.05
2016-11-25T12:56:20.096Z,63.39
2016-11-25T12:57:20.122Z,64.15